Time;durP1;ratioP1;P1;durP2;ratioP2;P2;SDS_P1;SDS_P2;PMS_P1;PMS_P2;Temp;Humidity;BMP_temperature;BMP_pressure;BME280_temperature;BME280_humidity;BME280_pressure;Samples;Min_cycle;Max_cycle;Signal;HPM_P1;HPM_P2
2022/05/12 00:01:20;;;;;;;0.10;0.00;;;12.00;99.90;;;;;;5097419;28;20482;-76
2022/05/12 00:03:46;;;;;;;0.90;0.57;;;12.00;99.90;;;;;;5115199;28;20044;-76
2022/05/12 00:06:12;;;;;;;0.00;0.00;;;12.00;99.90;;;;;;5097259;28;20051;-76
2022/05/12 00:08:37;;;;;;;0.00;0.00;;;11.90;99.90;;;;;;5114139;28;20035;-76
2022/05/12 00:11:03;;;;;;;0.00;0.00;;;11.90;99.90;;;;;;5114191;28;20043;-76
2022/05/12 00:13:30;;;;;;;0.00;0.00;;;11.90;99.90;;;;;;5097064;28;20060;-76
2022/05/12 00:15:57;;;;;;;3.10;0.40;;;11.80;99.90;;;;;;5113923;28;20043;-76
2022/05/12 00:18:22;;;;;;;1.95;0.35;;;11.80;99.90;;;;;;5113990;28;20467;-76
2022/05/12 00:20:48;;;;;;;0.00;0.00;;;11.70;99.90;;;;;;5113950;28;20088;-76
2022/05/12 00:23:17;;;;;;;0.00;0.00;;;11.70;99.90;;;;;;5114208;28;20094;-76
2022/05/12 00:25:45;;;;;;;1.95;0.63;;;11.70;99.90;;;;;;5113728;28;20126;-76
2022/05/12 00:28:11;;;;;;;0.00;0.00;;;11.60;99.90;;;;;;5113714;28;20085;-76
2022/05/12 00:30:38;;;;;;;0.00;0.00;;;11.60;99.90;;;;;;5096526;28;20395;-77
2022/05/12 00:33:05;;;;;;;0.00;0.00;;;11.50;99.90;;;;;;5097337;28;20044;-76
2022/05/12 00:35:31;;;;;;;0.08;0.00;;;11.50;99.90;;;;;;5114390;28;20383;-76
2022/05/12 00:37:57;;;;;;;0.00;0.00;;;11.50;99.90;;;;;;5097017;28;20039;-76
2022/05/12 00:40:23;;;;;;;0.00;0.00;;;11.50;99.90;;;;;;5096754;28;20056;-76
2022/05/12 00:43:00;;;;;;;0.00;0.00;;;11.50;99.90;;;;;;5113568;28;20054;-76
2022/05/12 00:45:28;;;;;;;0.00;0.00;;;11.40;99.90;;;;;;5113736;28;20059;-76
2022/05/12 00:47:54;;;;;;;0.00;0.00;;;11.40;99.90;;;;;;5096176;28;20491;-77
2022/05/12 00:50:24;;;;;;;0.20;0.20;;;11.30;99.90;;;;;;5113470;28;20048;-76
2022/05/12 00:52:50;;;;;;;0.15;0.15;;;11.30;99.90;;;;;;5113181;28;20499;-76
2022/05/12 00:55:25;;;;;;;0.00;0.00;;;11.30;99.90;;;;;;5096306;28;20051;-76
2022/05/12 00:57:55;;;;;;;0.30;0.10;;;11.30;99.90;;;;;;5096986;28;20055;-76
2022/05/12 01:00:23;;;;;;;0.00;0.00;;;11.30;99.90;;;;;;5114055;28;20054;-76
2022/05/12 01:02:53;;;;;;;0.00;0.00;;;11.20;99.90;;;;;;5096356;28;20469;-76
2022/05/12 01:05:21;;;;;;;0.00;0.00;;;11.20;99.90;;;;;;5113367;28;20047;-76
2022/05/12 01:07:47;;;;;;;0.00;0.00;;;11.10;99.90;;;;;;5112860;28;20386;-76
2022/05/12 01:10:13;;;;;;;0.00;0.00;;;11.10;99.90;;;;;;5096683;28;20047;-77
2022/05/12 01:12:44;;;;;;;0.00;0.00;;;11.10;99.90;;;;;;5096057;28;20138;-77
2022/05/12 01:15:11;;;;;;;0.00;0.00;;;11.00;99.90;;;;;;5096545;28;20461;-76
2022/05/12 01:17:37;;;;;;;0.00;0.00;;;11.00;99.90;;;;;;5113117;28;20108;-77
2022/05/12 01:20:04;;;;;;;0.00;0.00;;;11.00;99.90;;;;;;5096237;28;20425;-76
2022/05/12 01:22:34;;;;;;;0.00;0.00;;;10.90;99.90;;;;;;5112980;28;20043;-76
2022/05/12 01:25:00;;;;;;;0.00;0.00;;;10.90;99.90;;;;;;5113764;28;20087;-76
2022/05/12 01:27:29;;;;;;;0.00;0.00;;;10.90;99.90;;;;;;5112847;28;20078;-76
2022/05/12 01:29:57;;;;;;;0.00;0.00;;;10.80;99.90;;;;;;5096023;28;20048;-76
2022/05/12 01:32:26;;;;;;;0.00;0.00;;;10.80;99.90;;;;;;5113029;28;20138;-77
2022/05/12 01:34:52;;;;;;;0.00;0.00;;;10.80;99.90;;;;;;5112867;28;20088;-76
2022/05/12 01:37:19;;;;;;;0.00;0.00;;;10.80;99.90;;;;;;5097830;28;20052;-77
2022/05/12 01:39:45;;;;;;;0.00;0.00;;;10.70;99.90;;;;;;5117420;28;20402;-76
2022/05/12 01:42:11;;;;;;;0.10;0.10;;;10.70;99.90;;;;;;5100295;28;20051;-77
2022/05/12 01:44:38;;;;;;;0.00;0.00;;;10.70;99.90;;;;;;5117096;28;20040;-76
2022/05/12 01:47:05;;;;;;;0.00;0.00;;;10.70;99.90;;;;;;5116936;28;20050;-76
2022/05/12 01:49:31;;;;;;;0.00;0.00;;;10.60;99.90;;;;;;5116508;28;20051;-76
2022/05/12 01:51:58;;;;;;;3.25;0.00;;;10.60;99.90;;;;;;5099922;28;20047;-76
2022/05/12 01:54:26;;;;;;;0.00;0.00;;;10.60;99.90;;;;;;5100130;28;20130;-77
2022/05/12 01:56:52;;;;;;;0.00;0.00;;;10.50;99.90;;;;;;5116334;28;20138;-77
2022/05/12 01:59:18;;;;;;;0.00;0.00;;;10.50;99.90;;;;;;5099995;28;20142;-77
2022/05/12 02:01:48;;;;;;;0.00;0.00;;;10.50;99.90;;;;;;5099707;28;20066;-76
2022/05/12 02:04:17;;;;;;;0.10;0.10;;;10.50;99.90;;;;;;5116851;28;20055;-76
2022/05/12 02:06:44;;;;;;;0.00;0.00;;;10.50;99.90;;;;;;5099772;28;20051;-76
2022/05/12 02:09:10;;;;;;;0.00;0.00;;;10.50;99.90;;;;;;5116396;28;20134;-77
2022/05/12 02:11:36;;;;;;;0.00;0.00;;;10.50;99.90;;;;;;5115976;28;20537;-77
2022/05/12 02:14:04;;;;;;;0.00;0.00;;;10.40;99.90;;;;;;5116082;28;20083;-77
2022/05/12 02:16:31;;;;;;;0.05;0.00;;;10.40;99.90;;;;;;5099430;28;20094;-76
2022/05/12 02:18:57;;;;;;;0.00;0.00;;;10.40;99.90;;;;;;5099505;28;20364;-77
2022/05/12 02:21:22;;;;;;;0.00;0.00;;;10.40;99.90;;;;;;5099164;28;20096;-76
2022/05/12 02:23:48;;;;;;;0.00;0.00;;;10.40;99.90;;;;;;5116390;28;20040;-77
2022/05/12 02:26:14;;;;;;;0.00;0.00;;;10.30;99.90;;;;;;5099226;28;20399;-76
2022/05/12 02:28:40;;;;;;;0.00;0.00;;;10.30;99.90;;;;;;5116065;28;20479;-77
2022/05/12 02:31:06;;;;;;;0.10;0.00;;;10.30;99.90;;;;;;5116260;28;20395;-77
2022/05/12 02:33:32;;;;;;;0.00;0.00;;;10.30;99.90;;;;;;5116036;28;20092;-77
2022/05/12 02:35:57;;;;;;;0.00;0.00;;;10.30;99.90;;;;;;5116084;28;20383;-77
2022/05/12 02:38:23;;;;;;;0.00;0.00;;;10.30;99.90;;;;;;5115913;28;20130;-77
2022/05/12 02:40:49;;;;;;;0.00;0.00;;;10.30;99.90;;;;;;5098992;28;20059;-77
2022/05/12 02:43:24;;;;;;;0.00;0.00;;;10.30;99.90;;;;;;5116183;28;20479;-77
2022/05/12 02:45:55;;;;;;;0.00;0.00;;;10.20;99.90;;;;;;5115567;28;20124;-77
2022/05/12 02:48:24;;;;;;;0.00;0.00;;;10.20;99.90;;;;;;5114675;28;20075;-77
2022/05/12 02:50:50;;;;;;;0.00;0.00;;;10.20;99.90;;;;;;5115938;28;20047;-77
2022/05/12 02:53:16;;;;;;;0.00;0.00;;;10.20;99.90;;;;;;5116316;28;20039;-77
2022/05/12 02:55:42;;;;;;;0.00;0.00;;;10.10;99.90;;;;;;5115670;28;20467;-77
2022/05/12 02:58:07;;;;;;;0.00;0.00;;;10.10;99.90;;;;;;5114845;28;20105;-77
2022/05/12 03:00:33;;;;;;;0.00;0.00;;;10.10;99.90;;;;;;5115569;28;20044;-77
2022/05/12 03:02:59;;;;;;;0.00;0.00;;;10.20;99.90;;;;;;5098806;28;20043;-77
2022/05/12 03:05:26;;;;;;;0.10;0.10;;;10.00;99.90;;;;;;5098567;28;20051;-77
2022/05/12 03:07:52;;;;;;;0.00;0.00;;;10.00;99.90;;;;;;5115490;28;20109;-77
2022/05/12 03:10:18;;;;;;;0.00;0.00;;;10.00;99.90;;;;;;5115413;28;20047;-77
2022/05/12 03:12:44;;;;;;;0.00;0.00;;;10.00;99.90;;;;;;5115048;28;20055;-77
2022/05/12 03:15:12;;;;;;;0.00;0.00;;;10.00;99.90;;;;;;5098441;28;20099;-77
2022/05/12 03:17:39;;;;;;;0.00;0.00;;;9.90;99.90;;;;;;5116251;28;20051;-77
2022/05/12 03:20:09;;;;;;;0.00;0.00;;;10.00;99.90;;;;;;5115169;28;20054;-77
2022/05/12 03:22:36;;;;;;;0.00;0.00;;;9.90;99.90;;;;;;5098121;28;20493;-77
2022/05/12 03:25:03;;;;;;;0.00;0.00;;;9.80;99.90;;;;;;5115216;28;20039;-77
2022/05/12 03:27:29;;;;;;;0.00;0.00;;;9.80;99.90;;;;;;5098028;28;20085;-77
2022/05/12 03:29:55;;;;;;;0.00;0.00;;;9.80;99.90;;;;;;5115015;28;20047;-77
2022/05/12 03:32:21;;;;;;;0.00;0.00;;;9.80;99.90;;;;;;5098087;28;20059;-77
2022/05/12 03:34:47;;;;;;;0.80;0.80;;;9.80;99.90;;;;;;5114997;28;20054;-77
2022/05/12 03:37:13;;;;;;;0.00;0.00;;;9.80;99.90;;;;;;5114968;28;20039;-77
2022/05/12 03:39:39;;;;;;;0.00;0.00;;;9.70;99.90;;;;;;5097876;28;20089;-77
2022/05/12 03:42:10;;;;;;;0.00;0.00;;;9.70;99.90;;;;;;5097653;28;20043;-77
2022/05/12 03:44:59;;;;;;;0.20;0.20;;;9.70;99.90;;;;;;5098288;28;20059;-77
2022/05/12 03:47:27;;;;;;;0.00;0.00;;;9.70;99.90;;;;;;5097413;28;20055;-77
2022/05/12 03:50:00;;;;;;;0.00;0.00;;;9.70;99.90;;;;;;5114901;28;20078;-77
2022/05/12 03:52:26;;;;;;;0.00;0.00;;;9.70;99.90;;;;;;5114620;28;20055;-77
2022/05/12 03:54:51;;;;;;;0.00;0.00;;;9.70;99.90;;;;;;5097751;28;20403;-77
2022/05/12 03:57:20;;;;;;;0.00;0.00;;;9.70;99.90;;;;;;5114382;28;20058;-77
2022/05/12 03:59:50;;;;;;;0.00;0.00;;;9.70;99.90;;;;;;5113848;28;20096;-77
2022/05/12 04:02:18;;;;;;;0.00;0.00;;;9.70;99.90;;;;;;5097319;28;20055;-77
2022/05/12 04:04:46;;;;;;;0.00;0.00;;;9.70;99.90;;;;;;5114292;28;20093;-77
2022/05/12 04:07:14;;;;;;;0.00;0.00;;;9.70;99.90;;;;;;5097479;28;20089;-77
2022/05/12 04:09:41;;;;;;;0.00;0.00;;;9.70;99.90;;;;;;5114185;28;20036;-77
2022/05/12 04:12:09;;;;;;;0.00;0.00;;;9.70;99.90;;;;;;5114011;28;20047;-77
2022/05/12 04:14:39;;;;;;;0.00;0.00;;;9.70;99.90;;;;;;5113586;28;20051;-77
2022/05/12 04:17:10;;;;;;;0.00;0.00;;;9.70;99.90;;;;;;5097071;28;20048;-77
2022/05/12 04:19:37;;;;;;;0.00;0.00;;;9.70;99.90;;;;;;5097022;28;20043;-76
2022/05/12 04:22:03;;;;;;;0.00;0.00;;;9.70;99.90;;;;;;5114108;28;20044;-77
2022/05/12 04:24:29;;;;;;;0.00;0.00;;;9.70;99.90;;;;;;5114111;28;20126;-76
2022/05/12 04:26:56;;;;;;;0.20;0.20;;;9.70;99.90;;;;;;5097719;28;20192;-77
2022/05/12 04:29:22;;;;;;;0.00;0.00;;;9.80;99.90;;;;;;5096816;28;20040;-77
2022/05/12 04:31:47;;;;;;;0.10;0.00;;;9.80;99.90;;;;;;5113134;28;20098;-77
2022/05/12 04:36:57;;;;;;;0.00;0.00;;;9.80;99.90;;;;;;5114303;28;20094;-76
2022/05/12 04:39:23;;;;;;;0.03;0.00;;;9.90;99.90;;;;;;5113791;28;20067;-76
2022/05/12 04:41:49;;;;;;;0.00;0.00;;;9.90;99.90;;;;;;5113603;28;20463;-76
2022/05/12 04:44:15;;;;;;;0.00;0.00;;;9.90;99.90;;;;;;5113653;28;20047;-76
2022/05/12 04:46:42;;;;;;;0.00;0.00;;;10.00;99.90;;;;;;5096498;28;20479;-76
2022/05/12 04:49:10;;;;;;;0.00;0.00;;;10.10;99.90;;;;;;5112857;28;20043;-77
2022/05/12 04:51:37;;;;;;;0.00;0.00;;;10.10;99.90;;;;;;5096699;28;20134;-77
2022/05/12 04:54:09;;;;;;;0.00;0.00;;;10.10;99.90;;;;;;5096570;28;20043;-76
2022/05/12 04:56:38;;;;;;;0.00;0.00;;;10.10;99.90;;;;;;5096618;28;20485;-76
2022/05/12 04:59:05;;;;;;;0.00;0.00;;;10.20;99.90;;;;;;5113332;28;20475;-76
2022/05/12 05:01:31;;;;;;;0.00;0.00;;;10.20;99.90;;;;;;5113581;28;20051;-76
2022/05/12 05:04:00;;;;;;;0.00;0.00;;;10.30;99.90;;;;;;5113342;28;20407;-76
2022/05/12 05:06:29;;;;;;;0.00;0.00;;;10.30;99.90;;;;;;5113390;28;20475;-77
2022/05/12 05:08:55;;;;;;;0.00;0.00;;;10.30;99.90;;;;;;5096093;28;20047;-76
2022/05/12 05:11:21;;;;;;;0.00;0.00;;;10.30;99.90;;;;;;5112476;28;20518;-76
2022/05/12 05:13:48;;;;;;;0.00;0.00;;;10.40;99.90;;;;;;5112578;28;20071;-76
2022/05/12 05:16:15;;;;;;;0.00;0.00;;;10.40;99.90;;;;;;5096626;28;20455;-76
2022/05/12 05:18:41;;;;;;;0.00;0.00;;;10.50;99.90;;;;;;5096422;28;20073;-76
2022/05/12 05:21:08;;;;;;;0.13;0.05;;;10.50;99.90;;;;;;5113059;28;20039;-77
2022/05/12 05:23:33;;;;;;;0.10;0.10;;;10.60;99.90;;;;;;5096566;28;20040;-77
2022/05/12 05:25:59;;;;;;;0.20;0.20;;;10.60;99.90;;;;;;5113082;28;20031;-77
2022/05/12 05:28:25;;;;;;;0.95;0.63;;;10.70;99.90;;;;;;5112991;28;20417;-77
2022/05/12 05:30:51;;;;;;;0.00;0.00;;;10.70;99.90;;;;;;5113405;28;20058;-78
2022/05/12 05:33:18;;;;;;;0.20;0.20;;;10.80;99.90;;;;;;5096024;28;20399;-77
2022/05/12 05:35:43;;;;;;;2.28;0.40;;;10.80;99.90;;;;;;5096356;28;20127;-77
2022/05/12 05:38:10;;;;;;;0.00;0.00;;;10.90;99.90;;;;;;5096460;28;20492;-77
2022/05/12 05:40:36;;;;;;;0.03;0.03;;;10.90;99.90;;;;;;5112999;28;20048;-77
2022/05/12 05:43:02;;;;;;;0.00;0.00;;;11.00;99.90;;;;;;5112878;28;20502;-77
2022/05/12 05:45:29;;;;;;;2.17;0.38;;;11.10;99.90;;;;;;5112873;28;20043;-77
2022/05/12 05:47:58;;;;;;;0.32;0.17;;;11.10;99.90;;;;;;5112831;28;20380;-77
2022/05/12 05:50:29;;;;;;;0.13;0.05;;;11.30;99.90;;;;;;5113048;28;20491;-78
2022/05/12 05:55:41;;;;;;;0.00;0.00;;;11.40;99.90;;;;;;5113493;28;20043;-77
2022/05/12 05:58:08;;;;;;;0.45;0.22;;;11.50;99.90;;;;;;5096206;28;20040;-78
2022/05/12 06:00:36;;;;;;;0.00;0.00;;;11.50;99.90;;;;;;5095709;28;20085;-77
2022/05/12 06:03:02;;;;;;;0.00;0.00;;;11.60;99.90;;;;;;5113327;28;20101;-78
2022/05/12 06:05:28;;;;;;;0.05;0.05;;;11.70;99.90;;;;;;5095508;28;20055;-78
2022/05/12 06:07:54;;;;;;;0.28;0.10;;;11.70;99.90;;;;;;5112779;28;20038;-78
2022/05/12 06:10:20;;;;;;;0.00;0.00;;;11.80;99.90;;;;;;5112946;28;20032;-78
2022/05/12 06:12:48;;;;;;;4.88;0.80;;;11.90;99.90;;;;;;5112498;28;20059;-78
2022/05/12 06:15:15;;;;;;;0.20;0.20;;;11.80;99.90;;;;;;5112953;28;20120;-78
2022/05/12 06:17:41;;;;;;;0.00;0.00;;;11.90;99.90;;;;;;5095146;28;20093;-78
2022/05/12 06:20:10;;;;;;;0.75;0.10;;;12.10;99.90;;;;;;5095703;28;20059;-77
2022/05/12 06:22:36;;;;;;;0.00;0.00;;;12.30;99.90;;;;;;5095851;28;20448;-78
2022/05/12 06:25:08;;;;;;;0.03;0.03;;;12.40;99.90;;;;;;5100207;28;20053;-77
2022/05/12 06:27:34;;;;;;;0.63;0.10;;;12.40;99.90;;;;;;5099022;28;20051;-78
2022/05/12 06:29:59;;;;;;;0.43;0.25;;;12.50;99.90;;;;;;5098829;28;20052;-78
2022/05/12 06:32:28;;;;;;;0.00;0.00;;;12.50;99.90;;;;;;5116379;28;20044;-78
2022/05/12 06:34:54;;;;;;;0.00;0.00;;;12.60;99.90;;;;;;5116222;28;20462;-78
2022/05/12 06:37:20;;;;;;;0.00;0.00;;;12.70;99.90;;;;;;5099174;28;20090;-78
2022/05/12 06:39:46;;;;;;;0.13;0.13;;;12.70;99.90;;;;;;5099017;28;20093;-78
2022/05/12 06:42:15;;;;;;;0.10;0.10;;;12.90;99.90;;;;;;5116172;28;20043;-77
2022/05/12 06:44:44;;;;;;;0.10;0.00;;;12.90;99.90;;;;;;5116027;28;20039;-78
2022/05/12 06:47:12;;;;;;;0.10;0.00;;;13.00;99.90;;;;;;5116096;28;20046;-78
2022/05/12 06:49:38;;;;;;;0.00;0.00;;;13.10;99.90;;;;;;5098514;28;20043;-77
2022/05/12 06:52:05;;;;;;;6.93;1.33;;;13.20;99.90;;;;;;5098809;28;20204;-78
2022/05/12 06:54:32;;;;;;;0.00;0.00;;;13.40;99.90;;;;;;5115684;28;20043;-78
2022/05/12 06:56:58;;;;;;;0.00;0.00;;;13.50;99.90;;;;;;5116134;28;20124;-78
2022/05/12 06:59:23;;;;;;;0.00;0.00;;;13.60;99.90;;;;;;5098782;28;20413;-78
2022/05/12 07:01:49;;;;;;;0.15;0.15;;;13.80;99.90;;;;;;5115980;28;20383;-78
2022/05/12 07:04:15;;;;;;;0.00;0.00;;;13.90;99.90;;;;;;5098718;28;20056;-78
2022/05/12 07:06:41;;;;;;;0.65;0.63;;;14.10;99.90;;;;;;5098922;28;20052;-78
2022/05/12 07:09:06;;;;;;;0.00;0.00;;;14.20;99.90;;;;;;5115513;28;20039;-78
2022/05/12 07:11:32;;;;;;;0.43;0.43;;;14.20;99.90;;;;;;5098724;28;20051;-78
2022/05/12 07:13:58;;;;;;;0.85;0.20;;;14.40;99.90;;;;;;5114921;28;20134;-78
2022/05/12 07:16:23;;;;;;;0.00;0.00;;;14.60;99.90;;;;;;5115346;28;20055;-78
2022/05/12 07:18:49;;;;;;;0.00;0.00;;;14.70;99.90;;;;;;5098667;28;20525;-78
2022/05/12 07:26:45;;;;;;;0.80;0.22;;;15.20;99.90;;;;;;5115620;28;20126;-78
2022/05/12 07:29:17;;;;;;;0.00;0.00;;;15.40;99.90;;;;;;5114780;28;20043;-78
2022/05/12 07:31:43;;;;;;;0.20;0.20;;;15.50;99.90;;;;;;5098828;28;20407;-77
2022/05/12 07:34:10;;;;;;;0.10;0.00;;;15.80;99.90;;;;;;5097257;28;20104;-77
2022/05/12 07:36:39;;;;;;;0.80;0.17;;;15.90;99.90;;;;;;5097615;28;20039;-78
2022/05/12 07:39:05;;;;;;;0.00;0.00;;;16.00;99.90;;;;;;5114953;28;20044;-78
2022/05/12 07:41:32;;;;;;;0.20;0.20;;;16.20;99.90;;;;;;5098133;28;20067;-78
2022/05/12 07:43:58;;;;;;;0.00;0.00;;;16.20;99.90;;;;;;5097699;28;20532;-78
2022/05/12 07:46:29;;;;;;;0.10;0.00;;;16.30;99.90;;;;;;5097661;28;20059;-78
2022/05/12 07:48:55;;;;;;;0.20;0.20;;;16.30;99.90;;;;;;5114763;28;20036;-78
2022/05/12 07:51:22;;;;;;;0.00;0.00;;;16.20;99.90;;;;;;5114925;28;20048;-78
2022/05/12 07:53:49;;;;;;;0.10;0.10;;;16.20;99.90;;;;;;5114705;28;20051;-78
2022/05/12 07:56:16;;;;;;;1.23;0.55;;;16.20;99.90;;;;;;5114513;28;20047;-77
2022/05/12 07:58:43;;;;;;;0.00;0.00;;;16.40;99.90;;;;;;5115002;28;20128;-77
2022/05/12 08:01:09;;;;;;;0.00;0.00;;;16.50;99.90;;;;;;5114741;28;20040;-78
2022/05/12 08:03:35;;;;;;;0.00;0.00;;;16.60;99.90;;;;;;5114440;28;20050;-77
2022/05/12 08:06:01;;;;;;;0.10;0.10;;;16.90;99.90;;;;;;5097618;28;20051;-78
2022/05/12 08:08:27;;;;;;;0.00;0.00;;;17.10;99.90;;;;;;5097290;28;20051;-78
2022/05/12 08:10:54;;;;;;;0.00;0.00;;;17.20;99.90;;;;;;5114200;28;20049;-78
2022/05/12 08:13:20;;;;;;;0.00;0.00;;;17.30;99.90;;;;;;5113995;28;20048;-78
2022/05/12 08:15:48;;;;;;;0.00;0.00;;;17.30;99.90;;;;;;5097205;28;20391;-78
2022/05/12 08:18:17;;;;;;;0.00;0.00;;;17.30;99.90;;;;;;5097777;28;20083;-78
2022/05/12 08:20:44;;;;;;;0.38;0.32;;;17.60;99.90;;;;;;5113738;28;20555;-78
2022/05/12 08:23:10;;;;;;;0.00;0.00;;;17.70;99.90;;;;;;5114027;28;20137;-78
2022/05/12 08:25:36;;;;;;;0.15;0.15;;;17.60;99.90;;;;;;5113630;28;20035;-78
2022/05/12 08:28:02;;;;;;;0.17;0.17;;;17.60;99.90;;;;;;5096995;28;20055;-78
2022/05/12 08:30:30;;;;;;;0.40;0.00;;;17.50;99.90;;;;;;5113977;28;20031;-78
2022/05/12 08:32:56;;;;;;;0.20;0.20;;;17.60;99.90;;;;;;5096962;28;20035;-78
2022/05/12 08:35:23;;;;;;;0.00;0.00;;;17.70;99.90;;;;;;5113756;28;20044;-78
2022/05/12 08:37:48;;;;;;;0.10;0.08;;;17.50;99.90;;;;;;5113738;28;20048;-78
2022/05/12 08:41:04;;;;;;;0.00;0.00;;;17.40;99.80;;;;;;5114404;28;20044;-78
2022/05/12 08:43:45;;;;;;;0.00;0.00;;;17.30;99.90;;;;;;5055389;28;20052;-78
2022/05/12 08:46:19;;;;;;;0.00;0.00;;;17.20;98.40;;;;;;5038557;28;20060;-78
2022/05/12 08:48:46;;;;;;;0.00;0.00;;;17.00;97.60;;;;;;5055015;28;20504;-78
2022/05/12 08:51:17;;;;;;;0.00;0.00;;;17.00;98.50;;;;;;5055241;28;20052;-78
2022/05/12 08:54:05;;;;;;;0.00;0.00;;;16.90;99.40;;;;;;5055448;28;20048;-78
2022/05/12 08:56:32;;;;;;;0.00;0.00;;;16.70;99.00;;;;;;5055147;28;20519;-78
2022/05/12 08:58:59;;;;;;;0.00;0.00;;;16.60;99.30;;;;;;5054986;28;20135;-78
2022/05/12 09:01:38;;;;;;;0.00;0.00;;;16.70;99.80;;;;;;5055118;28;20060;-78
2022/05/12 09:04:17;;;;;;;0.43;0.43;;;16.90;97.90;;;;;;5055205;28;20040;-78
2022/05/12 09:07:13;;;;;;;0.00;0.00;;;17.00;98.10;;;;;;5038497;28;20440;-78
2022/05/12 09:09:57;;;;;;;0.00;0.00;;;17.10;98.40;;;;;;5038267;28;20045;-78
2022/05/12 09:12:35;;;;;;;0.15;0.00;;;17.30;98.40;;;;;;5038600;28;20044;-78
2022/05/12 09:15:38;;;;;;;0.00;0.00;;;17.70;97.30;;;;;;5055028;28;20103;-78
2022/05/12 09:18:10;;;;;;;0.13;0.00;;;18.00;97.00;;;;;;4959302;28;20057;-78
2022/05/12 09:20:36;;;;;;;0.00;0.00;;;18.20;95.20;;;;;;5006384;28;20130;-79
2022/05/12 09:23:04;;;;;;;0.10;0.10;;;18.40;94.20;;;;;;5032842;28;20475;-79
2022/05/12 09:25:45;;;;;;;0.00;0.00;;;18.50;94.60;;;;;;5032260;28;20045;-79
2022/05/12 09:28:24;;;;;;;0.75;0.47;;;18.60;94.80;;;;;;5032430;28;20055;-78
2022/05/12 09:30:50;;;;;;;0.00;0.00;;;18.50;93.20;;;;;;5034163;28;20060;-78
2022/05/12 09:33:34;;;;;;;0.00;0.00;;;18.30;92.70;;;;;;5034951;28;20451;-79
2022/05/12 09:36:04;;;;;;;0.00;0.00;;;18.50;94.50;;;;;;5034682;28;20405;-78
2022/05/12 09:38:30;;;;;;;0.00;0.00;;;18.70;93.60;;;;;;5035664;28;20411;-79
2022/05/12 09:40:57;;;;;;;0.00;0.00;;;19.00;93.10;;;;;;5018718;28;20060;-79
2022/05/12 09:43:32;;;;;;;0.10;0.00;;;19.00;91.90;;;;;;5017754;28;20092;-79
2022/05/12 09:46:03;;;;;;;0.00;0.00;;;18.80;92.90;;;;;;5018495;28;20484;-78
2022/05/12 09:48:31;;;;;;;0.00;0.00;;;18.40;91.90;;;;;;5018122;28;20091;-78
2022/05/12 09:51:16;;;;;;;0.00;0.00;;;18.40;92.20;;;;;;5034732;28;20045;-78
2022/05/12 09:53:42;;;;;;;0.00;0.00;;;18.20;92.50;;;;;;5074463;28;20479;-78
2022/05/12 09:56:26;;;;;;;0.32;0.20;;;18.00;92.10;;;;;;5112769;28;20044;-78
2022/05/12 09:59:14;;;;;;;0.00;0.00;;;18.10;91.40;;;;;;5098502;28;20051;-78
2022/05/12 10:07:53;;;;;;;0.00;0.00;;;18.40;90.60;;;;;;5100102;28;20054;-78
2022/05/12 10:08:24;;;;;;;2.40;0.82;;;19.20;90.80;;;;;;5116604;28;20051;-78
2022/05/12 10:11:00;;;;;;;0.00;0.00;;;19.60;87.70;;;;;;5116514;28;20108;-81
2022/05/12 10:13:47;;;;;;;0.00;0.00;;;19.80;87.40;;;;;;5116696;28;20052;-78
2022/05/12 10:16:17;;;;;;;0.00;0.00;;;20.10;87.70;;;;;;5100080;28;20091;-78
2022/05/12 10:18:49;;;;;;;0.00;0.00;;;19.90;86.50;;;;;;5116507;28;20047;-78
2022/05/12 10:21:22;;;;;;;0.00;0.00;;;19.70;86.30;;;;;;5116494;28;20436;-78
2022/05/12 10:24:06;;;;;;;0.00;0.00;;;19.70;87.60;;;;;;5116841;28;20080;-78
2022/05/12 10:26:56;;;;;;;0.00;0.00;;;19.80;88.80;;;;;;5116125;28;20051;-78
2022/05/12 10:29:38;;;;;;;0.03;0.03;;;19.80;85.60;;;;;;5116654;28;20050;-79
2022/05/12 10:32:29;;;;;;;0.00;0.00;;;19.60;85.20;;;;;;5099356;28;20384;-78
2022/05/12 10:35:01;;;;;;;0.10;0.00;;;19.80;84.10;;;;;;5115668;28;20458;-79
2022/05/12 10:37:56;;;;;;;0.00;0.00;;;19.80;83.20;;;;;;5116104;28;20039;-78
2022/05/12 10:40:41;;;;;;;0.00;0.00;;;19.50;83.50;;;;;;5115981;28;20120;-78
2022/05/12 10:43:17;;;;;;;0.10;0.00;;;19.90;86.60;;;;;;5115990;28;20050;-79
2022/05/12 10:46:13;;;;;;;0.22;0.22;;;20.10;83.30;;;;;;5116273;28;20094;-79
2022/05/12 10:49:13;;;;;;;0.00;0.00;;;20.30;84.90;;;;;;5096858;28;20052;-78
2022/05/12 10:51:42;;;;;;;0.00;0.00;;;20.50;82.60;;;;;;5116193;28;20039;-79
2022/05/12 10:54:30;;;;;;;0.00;0.00;;;20.60;76.70;;;;;;5115929;28;20418;-78
2022/05/12 10:57:03;;;;;;;0.00;0.00;;;20.70;77.20;;;;;;5116225;28;20116;-78
2022/05/12 10:59:47;;;;;;;0.00;0.00;;;21.00;78.80;;;;;;5098804;28;20489;-78
2022/05/12 11:02:42;;;;;;;0.00;0.00;;;21.20;77.00;;;;;;5115679;28;20490;-78
2022/05/12 11:05:26;;;;;;;0.05;0.05;;;21.30;78.90;;;;;;5098004;28;20061;-78
2022/05/12 11:08:04;;;;;;;0.17;0.15;;;21.00;76.70;;;;;;5098658;28;20048;-78
2022/05/12 11:10:41;;;;;;;0.00;0.00;;;21.00;74.50;;;;;;5114555;28;20055;-78
2022/05/12 11:13:14;;;;;;;0.00;0.00;;;20.70;73.40;;;;;;5098629;28;20095;-77
2022/05/12 11:16:03;;;;;;;0.00;0.00;;;20.60;74.60;;;;;;5115689;28;20395;-78
2022/05/12 11:18:35;;;;;;;0.00;0.00;;;20.70;76.40;;;;;;5114994;28;20052;-78
2022/05/12 11:21:07;;;;;;;0.00;0.00;;;20.90;75.10;;;;;;5115938;28;20090;-78
2022/05/12 11:23:47;;;;;;;0.00;0.00;;;20.90;74.20;;;;;;5115368;28;20035;-78
2022/05/12 11:26:37;;;;;;;0.20;0.10;;;20.60;73.40;;;;;;5115252;28;20040;-78
2022/05/12 11:32:18;;;;;;;0.00;0.00;;;20.40;73.40;;;;;;5115253;28;20047;-78
2022/05/12 11:35:05;;;;;;;0.00;0.00;;;20.10;71.80;;;;;;5098193;28;20051;-78
2022/05/12 11:37:40;;;;;;;0.03;0.03;;;19.70;70.10;;;;;;5099062;28;20043;-78
2022/05/12 11:40:49;;;;;;;0.10;0.10;;;19.40;72.60;;;;;;5115060;28;20138;-79
2022/05/12 11:46:32;;;;;;;0.00;0.00;;;20.00;71.30;;;;;;5114731;28;20498;-78
2022/05/12 11:49:08;;;;;;;0.00;0.00;;;20.40;70.50;;;;;;5097585;28;20467;-78
2022/05/12 11:51:47;;;;;;;0.00;0.00;;;20.60;70.10;;;;;;5114696;28;20039;-78
2022/05/12 11:54:21;;;;;;;0.00;0.00;;;20.70;70.10;;;;;;5114925;28;20055;-78
2022/05/12 11:56:51;;;;;;;0.00;0.00;;;20.50;69.90;;;;;;5115058;28;20051;-78
2022/05/12 11:59:26;;;;;;;0.00;0.00;;;20.20;68.90;;;;;;5097632;28;20044;-78
2022/05/12 12:02:17;;;;;;;0.15;0.00;;;20.20;69.50;;;;;;5114609;28;20051;-78
2022/05/12 12:04:47;;;;;;;0.00;0.00;;;20.40;70.40;;;;;;5114997;28;20047;-79
2022/05/12 12:07:14;;;;;;;4.68;0.47;;;20.50;71.40;;;;;;5097309;28;20051;-78
2022/05/12 12:09:40;;;;;;;0.00;0.00;;;20.30;69.70;;;;;;5096774;28;20551;-78
2022/05/12 12:12:09;;;;;;;0.00;0.00;;;20.10;69.30;;;;;;5114402;28;20043;-79
2022/05/12 12:14:48;;;;;;;0.00;0.00;;;20.10;70.80;;;;;;5113939;28;20418;-79
2022/05/12 12:17:39;;;;;;;0.00;0.00;;;20.40;70.50;;;;;;5114390;28;20100;-79
2022/05/12 12:20:08;;;;;;;0.00;0.00;;;20.50;67.40;;;;;;5114276;28;20074;-79
2022/05/12 12:22:49;;;;;;;0.00;0.00;;;20.70;70.00;;;;;;5113948;28;20051;-78
2022/05/12 12:25:18;;;;;;;0.00;0.00;;;21.00;69.50;;;;;;5114713;28;20043;-78
2022/05/12 12:27:53;;;;;;;0.00;0.00;;;21.30;70.70;;;;;;5114599;28;20394;-78
2022/05/12 12:30:31;;;;;;;0.20;0.20;;;21.20;68.50;;;;;;5097420;28;20130;-78
2022/05/12 12:33:15;;;;;;;0.00;0.00;;;20.90;68.80;;;;;;5114822;28;20379;-79
2022/05/12 12:36:02;;;;;;;0.00;0.00;;;21.10;69.60;;;;;;5114475;28;20283;-79
2022/05/12 12:38:41;;;;;;;0.00;0.00;;;21.10;67.70;;;;;;5114321;28;20137;-79
2022/05/12 12:41:08;;;;;;;0.00;0.00;;;20.90;68.10;;;;;;5114239;28;20048;-79
2022/05/12 12:43:37;;;;;;;0.00;0.00;;;20.60;66.60;;;;;;5113871;28;20036;-78
2022/05/12 12:46:26;;;;;;;0.00;0.00;;;20.80;68.20;;;;;;5113741;28;20052;-78
2022/05/12 12:49:10;;;;;;;0.00;0.00;;;20.70;67.80;;;;;;5113572;28;20043;-78
2022/05/12 12:51:38;;;;;;;0.13;0.13;;;20.40;67.80;;;;;;5113725;28;20043;-79
2022/05/12 12:57:19;;;;;;;0.00;0.00;;;20.20;66.50;;;;;;5113633;28;20043;-78
2022/05/12 12:59:53;;;;;;;0.10;0.10;;;20.30;65.60;;;;;;5113309;28;20126;-79
2022/05/12 13:02:40;;;;;;;0.00;0.00;;;20.20;67.20;;;;;;5095804;28;20082;-79
2022/05/12 13:05:09;;;;;;;0.00;0.00;;;20.10;66.80;;;;;;5096456;28;20047;-78
2022/05/12 13:07:37;;;;;;;0.00;0.00;;;20.40;68.70;;;;;;5113140;28;20109;-79
2022/05/12 13:10:12;;;;;;;0.13;0.08;;;20.70;66.80;;;;;;5114389;28;20047;-79
2022/05/12 13:12:37;;;;;;;;;;;20.60;65.30;;;;;;5113806;28;20096;-79
2022/05/12 13:15:16;;;;;;;0.00;0.00;;;20.80;68.50;;;;;;5113510;28;19919;-78
2022/05/12 13:17:49;;;;;;;0.00;0.00;;;21.20;67.30;;;;;;5113722;28;20087;-79
2022/05/12 13:20:19;;;;;;;0.00;0.00;;;21.10;64.20;;;;;;5096834;28;20044;-79
2022/05/12 13:22:52;;;;;;;0.00;0.00;;;21.20;65.90;;;;;;5113644;28;20097;-79
2022/05/12 13:25:39;;;;;;;0.00;0.00;;;21.40;64.20;;;;;;5113303;28;20047;-79
2022/05/12 13:28:07;;;;;;;0.00;0.00;;;21.40;63.00;;;;;;5113828;28;20077;-79
2022/05/12 13:30:52;;;;;;;0.00;0.00;;;21.30;62.40;;;;;;5113289;28;20135;-79